Time;durP1;ratioP1;P1;durP2;ratioP2;P2;SDS_P1;SDS_P2;PMS_P1;PMS_P2;Temp;Humidity;BMP_temperature;BMP_pressure;BME280_temperature;BME280_humidity;BME280_pressure;Samples;Min_cycle;Max_cycle;Signal;HPM_P1;HPM_P2
2020/12/05 00:00:41;;;;;;;5.33;1.90;;;9.60;99.90;;;;;;5118802;28;20187;-92
2020/12/05 00:03:15;;;;;;;5.27;2.07;;;9.50;99.90;;;;;;5118817;28;20238;-90
2020/12/05 00:05:55;;;;;;;2.80;1.83;;;9.40;99.90;;;;;;5118573;28;20215;-90
2020/12/05 00:08:28;;;;;;;4.10;2.10;;;9.30;99.90;;;;;;5117389;28;20246;-90
2020/12/05 00:11:01;;;;;;;2.90;1.87;;;9.20;99.90;;;;;;5108314;28;20200;-90
2020/12/05 00:13:42;;;;;;;1.73;1.40;;;9.10;99.90;;;;;;5079021;28;20184;-92
2020/12/05 00:16:17;;;;;;;3.77;1.73;;;8.90;99.90;;;;;;5096983;28;20588;-90
2020/12/05 00:18:53;;;;;;;3.83;2.13;;;8.80;99.90;;;;;;5111340;28;20233;-90
2020/12/05 00:21:27;;;;;;;4.47;1.80;;;8.70;99.90;;;;;;5098500;28;20273;-91
2020/12/05 00:24:00;;;;;;;3.93;2.20;;;8.60;99.90;;;;;;5097753;28;20200;-90
2020/12/05 00:26:34;;;;;;;3.90;1.83;;;8.50;99.90;;;;;;5098734;28;20206;-90
2020/12/05 00:29:05;;;;;;;3.43;2.30;;;8.40;99.90;;;;;;5109335;28;20263;-89
2020/12/05 00:31:38;;;;;;;2.93;2.03;;;8.30;99.90;;;;;;5108298;28;20190;-90
2020/12/05 00:34:12;;;;;;;3.27;2.20;;;8.20;99.90;;;;;;5116729;28;20187;-90
2020/12/05 00:36:44;;;;;;;3.03;1.90;;;8.10;99.90;;;;;;5094862;28;20262;-91
2020/12/05 00:39:15;;;;;;;3.97;2.00;;;8.00;99.90;;;;;;5113588;28;20259;-91
2020/12/05 00:41:46;;;;;;;4.67;2.60;;;7.90;99.90;;;;;;5114582;28;20248;-91
2020/12/05 00:44:17;;;;;;;4.87;2.17;;;7.70;99.90;;;;;;5114343;28;20218;-90
2020/12/05 00:46:51;;;;;;;4.83;2.57;;;7.70;99.90;;;;;;5114814;28;20229;-90
2020/12/05 00:49:22;;;;;;;5.30;2.73;;;7.50;99.90;;;;;;5105434;28;20244;-91
2020/12/05 00:51:53;;;;;;;9.93;2.53;;;7.50;99.90;;;;;;5113526;28;20234;-92
2020/12/05 00:54:25;;;;;;;7.50;3.10;;;7.40;99.90;;;;;;5113969;28;20206;-90
2020/12/05 00:56:58;;;;;;;5.00;2.83;;;7.30;99.90;;;;;;5112190;28;20293;-91
2020/12/05 00:59:32;;;;;;;4.03;2.90;;;7.30;99.90;;;;;;5112378;28;20197;-92
2020/12/05 01:02:15;;;;;;;4.27;2.70;;;7.20;99.90;;;;;;5112307;28;20271;-91
2020/12/05 01:04:48;;;;;;;4.30;2.30;;;7.20;99.90;;;;;;5116544;28;20278;-92
2020/12/05 01:07:25;;;;;;;5.17;3.40;;;7.10;99.90;;;;;;5129614;28;20310;-92
2020/12/05 01:09:57;;;;;;;4.33;2.70;;;7.00;99.90;;;;;;5130629;28;20194;-91
2020/12/05 01:12:28;;;;;;;4.90;2.97;;;7.00;99.90;;;;;;5123423;28;20267;-92
2020/12/05 01:15:02;;;;;;;5.00;3.30;;;6.90;99.90;;;;;;5113413;28;20207;-92
2020/12/05 01:17:54;;;;;;;5.83;3.90;;;6.90;99.90;;;;;;5131933;28;20289;-93
2020/12/05 01:20:28;;;;;;;6.93;3.40;;;6.80;99.90;;;;;;5127607;28;20198;-92
2020/12/05 01:23:05;;;;;;;4.17;2.93;;;6.80;99.90;;;;;;5112709;28;20203;-90
2020/12/05 01:25:38;;;;;;;8.27;2.53;;;6.70;99.90;;;;;;5114016;28;20258;-92
2020/12/05 01:28:10;;;;;;;3.90;2.43;;;6.60;99.90;;;;;;5113571;28;20255;-90
2020/12/05 01:30:41;;;;;;;5.37;2.63;;;6.60;99.90;;;;;;5114567;28;20203;-90
2020/12/05 01:33:23;;;;;;;5.73;2.73;;;6.50;99.90;;;;;;5113449;28;20202;-91
2020/12/05 01:35:54;;;;;;;4.80;3.17;;;6.50;99.90;;;;;;5114889;28;20198;-91
2020/12/05 01:38:26;;;;;;;5.33;3.37;;;6.40;99.90;;;;;;5120154;28;20246;-90
2020/12/05 01:40:59;;;;;;;7.33;3.27;;;6.40;99.90;;;;;;5113799;28;20246;-90
2020/12/05 01:43:40;;;;;;;8.57;3.30;;;6.40;99.90;;;;;;5112974;28;20203;-91
2020/12/05 01:46:36;;;;;;;4.73;2.80;;;6.40;99.90;;;;;;5115833;28;20200;-90
2020/12/05 01:49:10;;;;;;;5.07;3.43;;;6.40;99.90;;;;;;5109962;28;20219;-88
2020/12/05 01:51:45;;;;;;;5.10;2.80;;;6.40;99.90;;;;;;5095349;28;20179;-96
2020/12/05 01:54:16;;;;;;;4.57;3.13;;;6.40;99.90;;;;;;5100298;28;20179;-90
2020/12/05 01:57:14;;;;;;;4.40;3.00;;;6.30;99.90;;;;;;5103182;28;20203;-84
2020/12/05 02:00:16;;;;;;;7.43;3.13;;;6.30;99.90;;;;;;5108600;28;20237;-85
2020/12/05 02:02:47;;;;;;;5.43;3.33;;;6.20;99.90;;;;;;5096318;28;20256;-85
2020/12/05 02:05:28;;;;;;;3.63;3.03;;;6.20;99.90;;;;;;4747858;28;10000108;-85
2020/12/05 02:08:07;;;;;;;4.93;3.17;;;6.20;99.90;;;;;;5104036;28;20218;-91
2020/12/05 02:10:42;;;;;;;5.80;3.57;;;6.10;99.90;;;;;;5106602;28;20211;-83
2020/12/05 02:13:21;;;;;;;3.83;2.93;;;6.10;99.90;;;;;;5098981;28;20202;-85
2020/12/05 02:15:54;;;;;;;4.97;3.20;;;6.00;99.90;;;;;;5099727;28;20233;-84
2020/12/05 02:18:26;;;;;;;7.63;3.70;;;6.00;99.90;;;;;;5102516;28;20230;-86
2020/12/05 02:21:02;;;;;;;7.93;4.10;;;6.00;99.90;;;;;;5102895;28;20222;-86
2020/12/05 02:23:34;;;;;;;4.73;3.60;;;6.00;99.90;;;;;;5112680;28;20279;-86
2020/12/05 02:26:09;;;;;;;5.67;3.47;;;5.90;99.90;;;;;;5113490;28;20207;-85
2020/12/05 02:28:40;;;;;;;8.37;3.90;;;5.80;99.90;;;;;;5105409;28;20306;-85
2020/12/05 02:31:12;;;;;;;5.80;3.60;;;5.90;99.90;;;;;;5112347;28;20205;-88
2020/12/05 02:33:43;;;;;;;7.10;3.70;;;5.80;99.90;;;;;;5114714;28;20210;-88
2020/12/05 02:36:16;;;;;;;6.27;3.80;;;5.80;99.90;;;;;;5107226;28;20211;-88
2020/12/05 02:39:00;;;;;;;5.07;3.43;;;5.80;99.90;;;;;;5113051;28;20918;-89
2020/12/05 02:41:31;;;;;;;5.80;3.80;;;5.80;99.90;;;;;;5096752;28;20208;-86
2020/12/05 02:44:06;;;;;;;7.17;3.07;;;5.80;99.90;;;;;;5101788;28;20210;-90
2020/12/05 02:46:45;;;;;;;4.90;3.33;;;5.80;99.90;;;;;;5107516;28;20206;-93
2020/12/05 02:49:16;;;;;;;7.33;3.53;;;5.70;99.90;;;;;;5108016;28;20223;-90
2020/12/05 02:51:46;;;;;;;5.00;3.33;;;5.70;99.90;;;;;;5104759;28;20201;-88
2020/12/05 02:54:18;;;;;;;5.73;3.60;;;5.60;99.90;;;;;;5109894;28;20194;-86
2020/12/05 02:56:50;;;;;;;5.30;3.57;;;5.60;99.90;;;;;;5105283;28;20218;-86
2020/12/05 02:59:20;;;;;;;5.27;3.57;;;5.60;99.90;;;;;;5104173;28;20253;-89
2020/12/05 03:01:51;;;;;;;5.73;3.67;;;5.50;99.90;;;;;;5119847;28;20255;-88
2020/12/05 03:04:23;;;;;;;4.90;3.20;;;5.50;99.90;;;;;;5108724;28;20221;-92
2020/12/05 03:06:57;;;;;;;6.37;3.67;;;5.50;99.90;;;;;;5103524;28;20211;-87
2020/12/05 03:09:30;;;;;;;5.37;2.93;;;5.40;99.90;;;;;;5104173;28;20233;-88
2020/12/05 03:12:01;;;;;;;5.07;3.33;;;5.40;99.90;;;;;;5103209;28;20222;-86
2020/12/05 03:14:32;;;;;;;5.03;3.67;;;5.30;99.90;;;;;;5101255;28;20230;-87
2020/12/05 03:17:03;;;;;;;5.70;3.50;;;5.30;99.90;;;;;;5102705;28;20845;-88
2020/12/05 03:19:34;;;;;;;6.43;3.20;;;5.30;99.90;;;;;;5101428;28;20218;-88
2020/12/05 03:22:05;;;;;;;6.93;3.10;;;5.20;99.90;;;;;;5105461;28;20260;-87
2020/12/05 03:24:37;;;;;;;6.67;3.30;;;5.20;99.90;;;;;;5094638;28;20683;-87
2020/12/05 03:27:07;;;;;;;5.10;3.13;;;5.10;99.90;;;;;;5100655;28;20289;-85
2020/12/05 03:29:39;;;;;;;7.73;3.70;;;5.10;99.90;;;;;;5097505;28;20230;-85
2020/12/05 03:32:13;;;;;;;4.87;3.30;;;5.10;99.90;;;;;;5100373;28;20230;-87
2020/12/05 03:34:44;;;;;;;7.43;4.17;;;5.00;99.90;;;;;;5090311;28;20239;-90
2020/12/05 03:37:16;;;;;;;7.73;6.33;;;5.00;99.90;;;;;;5095846;28;20203;-85
2020/12/05 03:39:48;;;;;;;14.23;11.73;;;4.90;99.90;;;;;;5100746;28;20233;-84
2020/12/05 03:42:19;;;;;;;9.77;7.23;;;4.90;99.90;;;;;;5094644;28;20203;-86
2020/12/05 03:44:49;;;;;;;8.67;6.30;;;4.80;99.90;;;;;;5097490;28;20211;-85
2020/12/05 03:47:20;;;;;;;8.73;6.00;;;4.80;99.90;;;;;;5089492;28;20250;-85
2020/12/05 03:49:50;;;;;;;9.27;6.83;;;4.70;99.90;;;;;;5097263;28;20211;-90
2020/12/05 03:52:21;;;;;;;11.17;7.50;;;4.70;99.90;;;;;;5094371;28;20209;-84
2020/12/05 03:54:53;;;;;;;10.67;7.10;;;4.60;99.90;;;;;;5098898;28;20207;-84
2020/12/05 03:57:23;;;;;;;7.77;6.37;;;4.50;99.90;;;;;;5094794;28;20202;-85
2020/12/05 03:59:54;;;;;;;8.43;5.70;;;4.50;99.90;;;;;;5101903;28;20252;-88
2020/12/05 04:02:25;;;;;;;8.80;5.73;;;4.50;99.90;;;;;;5096099;28;20278;-86
2020/12/05 04:04:56;;;;;;;11.53;8.57;;;4.50;99.90;;;;;;5106576;28;20203;-87
2020/12/05 04:07:26;;;;;;;10.83;7.50;;;4.50;99.90;;;;;;5099378;28;20712;-87
2020/12/05 04:09:58;;;;;;;15.27;12.47;;;4.50;99.90;;;;;;5098234;28;20203;-87
2020/12/05 04:12:30;;;;;;;11.67;8.00;;;4.50;99.90;;;;;;5099055;28;20202;-87
2020/12/05 04:15:05;;;;;;;6.70;5.50;;;4.60;99.90;;;;;;5089348;28;20302;-87
2020/12/05 04:17:35;;;;;;;8.23;5.83;;;4.70;99.90;;;;;;5100875;28;20218;-87
2020/12/05 04:20:09;;;;;;;11.90;8.03;;;4.70;99.90;;;;;;5098825;28;20299;-87
2020/12/05 04:22:40;;;;;;;9.77;7.73;;;4.70;99.90;;;;;;5097728;28;20263;-87
2020/12/05 04:25:12;;;;;;;10.47;6.77;;;4.70;99.90;;;;;;5097498;28;20231;-87
2020/12/05 04:27:45;;;;;;;8.80;5.70;;;4.70;99.90;;;;;;5104955;28;20206;-87
2020/12/05 04:30:24;;;;;;;6.63;5.47;;;4.60;99.90;;;;;;5105396;28;20199;-88
2020/12/05 04:32:55;;;;;;;5.33;4.83;;;4.60;99.90;;;;;;5103095;28;20202;-87
2020/12/05 04:35:27;;;;;;;6.80;5.13;;;4.60;99.90;;;;;;5095385;28;20225;-87
2020/12/05 04:38:08;;;;;;;6.77;5.13;;;4.50;99.90;;;;;;5098062;28;20258;-86
2020/12/05 04:40:40;;;;;;;7.90;5.20;;;4.40;99.90;;;;;;5104425;28;20219;-87
2020/12/05 04:43:10;;;;;;;20.93;14.77;;;4.40;99.90;;;;;;5098940;28;21457;-86
2020/12/05 04:45:44;;;;;;;22.13;15.17;;;4.40;99.90;;;;;;5098877;28;20288;-86
2020/12/05 04:48:20;;;;;;;25.60;16.17;;;4.50;99.90;;;;;;5100008;28;20218;-88
2020/12/05 04:50:51;;;;;;;25.10;16.20;;;4.40;99.90;;;;;;5101109;28;20271;-84
2020/12/05 04:53:23;;;;;;;17.07;12.30;;;4.30;99.90;;;;;;5103617;28;20203;-86
2020/12/05 04:56:02;;;;;;;15.00;11.37;;;4.20;99.90;;;;;;5105625;28;20213;-86
2020/12/05 04:58:36;;;;;;;13.87;10.03;;;4.20;99.90;;;;;;5108403;28;20243;-87
2020/12/05 05:01:16;;;;;;;13.70;9.97;;;4.10;99.90;;;;;;5102034;28;20195;-84
2020/12/05 05:03:50;;;;;;;9.70;7.57;;;4.00;99.90;;;;;;5106355;28;20203;-86
2020/12/05 05:06:22;;;;;;;9.40;6.87;;;4.00;99.90;;;;;;5109523;28;20207;-87
2020/12/05 05:11:56;;;;;;;8.67;6.43;;;4.00;99.90;;;;;;5094136;28;20227;-87
2020/12/05 05:14:38;;;;;;;12.20;7.53;;;4.00;99.90;;;;;;5098796;28;20206;-86
2020/12/05 05:17:10;;;;;;;10.03;7.10;;;4.00;99.90;;;;;;5100582;28;20272;-86
2020/12/05 05:19:40;;;;;;;8.57;5.50;;;4.00;99.90;;;;;;5102124;28;20291;-87
2020/12/05 05:22:11;;;;;;;6.90;5.30;;;4.00;99.90;;;;;;5108495;28;20251;-87
2020/12/05 05:25:00;;;;;;;10.17;6.37;;;4.00;99.90;;;;;;5104058;28;20209;-87
2020/12/05 05:27:32;;;;;;;8.80;6.70;;;4.00;99.90;;;;;;5102660;28;20206;-86
2020/12/05 05:30:13;;;;;;;7.33;6.20;;;4.00;99.90;;;;;;5096893;28;20211;-87
2020/12/05 05:32:46;;;;;;;9.93;6.70;;;4.00;99.90;;;;;;5104386;28;20343;-86
2020/12/05 05:35:18;;;;;;;9.30;5.90;;;3.90;99.90;;;;;;5095997;28;20297;-85
2020/12/05 05:37:49;;;;;;;8.73;6.70;;;3.90;99.90;;;;;;5100587;28;20219;-86
2020/12/05 05:40:27;;;;;;;10.07;6.00;;;4.00;99.90;;;;;;5099510;28;20205;-86
2020/12/05 05:42:59;;;;;;;8.60;5.90;;;4.10;99.90;;;;;;5100377;28;20207;-86
2020/12/05 05:45:30;;;;;;;9.37;6.90;;;4.20;99.90;;;;;;5099426;28;20242;-86
2020/12/05 05:48:05;;;;;;;9.23;7.80;;;4.10;99.90;;;;;;5101131;28;20210;-86
2020/12/05 05:50:38;;;;;;;9.57;7.97;;;4.00;99.90;;;;;;5104267;28;20607;-87
2020/12/05 05:53:13;;;;;;;15.43;10.43;;;3.90;99.90;;;;;;5101981;28;20264;-88
2020/12/05 05:55:46;;;;;;;16.63;11.10;;;3.80;99.90;;;;;;5105254;28;20310;-87
2020/12/05 05:58:22;;;;;;;15.47;10.43;;;3.60;99.90;;;;;;5099050;28;20248;-87
2020/12/05 06:00:54;;;;;;;11.80;8.00;;;3.60;99.90;;;;;;5092569;28;20210;-88
2020/12/05 06:03:27;;;;;;;8.93;7.43;;;3.50;99.90;;;;;;5097674;28;20199;-86
2020/12/05 06:06:00;;;;;;;9.73;7.30;;;3.40;99.90;;;;;;5100490;28;20663;-88
2020/12/05 06:11:49;;;;;;;18.07;12.03;;;3.30;99.90;;;;;;5100901;28;20199;-87
2020/12/05 06:14:22;;;;;;;17.10;12.53;;;3.30;99.90;;;;;;5102899;28;20210;-86
2020/12/05 06:17:05;;;;;;;23.43;15.17;;;3.30;99.90;;;;;;5101281;28;20195;-91
2020/12/05 06:19:40;;;;;;;22.67;15.90;;;3.30;99.90;;;;;;5097633;28;20531;-85
2020/12/05 06:22:23;;;;;;;25.50;16.40;;;3.20;99.90;;;;;;5101111;28;20229;-87
2020/12/05 06:25:04;;;;;;;22.97;16.80;;;3.20;99.90;;;;;;5100264;28;20215;-87
2020/12/05 06:27:38;;;;;;;26.33;19.00;;;3.20;99.90;;;;;;5099032;28;20203;-87
2020/12/05 06:30:12;;;;;;;31.53;23.13;;;3.10;99.90;;;;;;5079692;28;20569;-87
2020/12/05 06:32:45;;;;;;;25.50;19.80;;;3.10;99.90;;;;;;5097664;28;20207;-86
2020/12/05 06:35:38;;;;;;;25.90;19.50;;;3.10;99.90;;;;;;5099499;28;20241;-86
2020/12/05 06:38:18;;;;;;;23.17;16.53;;;3.10;99.90;;;;;;5089323;28;20284;-88
2020/12/05 06:40:54;;;;;;;26.60;17.23;;;3.10;99.90;;;;;;5106549;28;20209;-88
2020/12/05 06:43:28;;;;;;;31.17;20.23;;;3.10;99.90;;;;;;5099502;28;20190;-87
2020/12/05 06:46:01;;;;;;;45.37;26.77;;;3.10;99.90;;;;;;5109017;28;20237;-87
2020/12/05 06:48:39;;;;;;;63.70;34.57;;;3.10;99.90;;;;;;5104537;28;20289;-85
2020/12/05 06:51:25;;;;;;;58.87;32.93;;;3.10;99.90;;;;;;5103791;28;20214;-86
2020/12/05 06:54:01;;;;;;;50.97;28.97;;;3.00;99.90;;;;;;5106615;28;20294;-86
2020/12/05 06:56:31;;;;;;;32.27;18.17;;;3.00;99.90;;;;;;5107803;28;20267;-86
2020/12/05 06:59:02;;;;;;;31.43;18.20;;;3.00;99.90;;;;;;5115782;28;20202;-87
2020/12/05 07:01:34;;;;;;;20.73;12.27;;;3.00;99.90;;;;;;5118640;28;20226;-89
2020/12/05 07:04:23;;;;;;;13.13;8.77;;;3.00;99.90;;;;;;5113786;28;20211;-87
2020/12/05 07:07:20;;;;;;;11.77;7.93;;;3.00;99.90;;;;;;5101866;28;20204;-86
2020/12/05 07:09:55;;;;;;;11.63;7.07;;;3.00;99.90;;;;;;5098654;28;20203;-87
2020/12/05 07:12:26;;;;;;;10.73;6.50;;;3.00;99.90;;;;;;5109059;28;20206;-88
2020/12/05 07:15:17;;;;;;;13.67;8.17;;;3.00;99.90;;;;;;5106364;28;20244;-87
2020/12/05 07:17:50;;;;;;;13.70;8.70;;;3.00;99.90;;;;;;5105812;28;20260;-87
2020/12/05 07:20:21;;;;;;;16.77;10.30;;;3.00;99.90;;;;;;5104761;28;20201;-87
2020/12/05 07:22:54;;;;;;;14.63;10.20;;;3.00;99.90;;;;;;5104560;28;20658;-88
2020/12/05 07:25:25;;;;;;;14.63;10.03;;;3.00;99.90;;;;;;5107259;28;20214;-87
2020/12/05 07:27:57;;;;;;;12.60;9.17;;;3.10;99.90;;;;;;5105551;28;20227;-87
2020/12/05 07:30:29;;;;;;;11.60;8.37;;;3.00;99.90;;;;;;5106326;28;20199;-87
2020/12/05 07:33:01;;;;;;;13.03;8.40;;;3.00;99.90;;;;;;5091277;28;20591;-86
2020/12/05 07:35:32;;;;;;;10.23;7.63;;;3.00;99.90;;;;;;5107834;28;20232;-88
2020/12/05 07:38:04;;;;;;;12.50;7.90;;;3.00;99.90;;;;;;5099092;28;20206;-89
2020/12/05 07:40:39;;;;;;;9.03;6.53;;;3.00;99.90;;;;;;5109523;28;20219;-87
2020/12/05 07:43:20;;;;;;;8.73;5.77;;;3.00;99.90;;;;;;5108074;28;20218;-87
2020/12/05 07:45:53;;;;;;;12.63;7.00;;;3.00;99.90;;;;;;5090850;28;20215;-88
2020/12/05 07:48:25;;;;;;;7.93;6.27;;;3.00;99.90;;;;;;5103940;28;20228;-88
2020/12/05 07:50:56;;;;;;;10.43;5.33;;;3.00;99.90;;;;;;5110170;28;20206;-89
2020/12/05 07:53:33;;;;;;;9.97;5.97;;;3.10;99.90;;;;;;5108287;28;20217;-88
2020/12/05 07:56:17;;;;;;;9.40;5.80;;;3.10;99.90;;;;;;5108964;28;20304;-89
2020/12/05 07:58:49;;;;;;;8.43;5.13;;;3.10;99.90;;;;;;5107641;28;20230;-87
2020/12/05 08:01:51;;;;;;;7.90;5.63;;;3.10;99.90;;;;;;5107814;28;20220;-89
2020/12/05 08:04:54;;;;;;;7.73;5.73;;;3.10;99.90;;;;;;5098499;28;20289;-89
2020/12/05 08:07:42;;;;;;;9.20;5.57;;;3.00;99.90;;;;;;5104084;28;20651;-88
2020/12/05 08:10:15;;;;;;;9.03;4.83;;;3.00;99.90;;;;;;5110290;28;20207;-88
2020/12/05 08:13:15;;;;;;;8.83;5.33;;;2.90;99.90;;;;;;5116728;28;20195;-88
2020/12/05 08:15:49;;;;;;;11.53;5.90;;;2.90;99.90;;;;;;5113851;28;20190;-87
2020/12/05 08:18:23;;;;;;;14.23;7.97;;;2.90;99.90;;;;;;5118573;28;20218;-87
2020/12/05 08:20:56;;;;;;;11.10;6.40;;;2.90;99.90;;;;;;5112857;28;20207;-87
2020/12/05 08:23:30;;;;;;;10.10;5.10;;;3.00;99.90;;;;;;5111826;28;20266;-88
2020/12/05 08:26:03;;;;;;;7.67;4.67;;;3.00;99.90;;;;;;5111336;28;20225;-88
2020/12/05 08:28:38;;;;;;;6.20;4.67;;;3.00;99.90;;;;;;5111434;28;20222;-88
2020/12/05 08:31:18;;;;;;;6.07;4.53;;;3.00;99.90;;;;;;5109067;28;20217;-87
2020/12/05 08:33:55;;;;;;;6.53;4.60;;;3.00;99.90;;;;;;5112151;28;20223;-88
2020/12/05 08:36:32;;;;;;;7.03;4.70;;;3.00;99.90;;;;;;5112375;28;20207;-88
2020/12/05 08:39:08;;;;;;;6.80;4.17;;;3.00;99.90;;;;;;5112727;28;20245;-87
2020/12/05 08:41:44;;;;;;;9.53;5.60;;;2.90;99.90;;;;;;5110302;28;20215;-90
2020/12/05 08:44:17;;;;;;;8.77;5.50;;;2.80;99.90;;;;;;5103370;28;20206;-88
2020/12/05 08:46:47;;;;;;;8.93;5.90;;;2.80;99.90;;;;;;5108370;28;20225;-87
2020/12/05 08:49:23;;;;;;;5.90;3.90;;;2.80;99.90;;;;;;5107217;28;20234;-86
2020/12/05 08:52:01;;;;;;;4.70;3.03;;;2.90;99.90;;;;;;5106151;28;20206;-87
2020/12/05 08:54:31;;;;;;;5.93;3.40;;;2.90;99.90;;;;;;5107467;28;20262;-88
2020/12/05 08:57:11;;;;;;;4.40;3.13;;;2.90;99.90;;;;;;5107288;28;20735;-87
2020/12/05 08:59:43;;;;;;;4.27;3.00;;;2.90;99.90;;;;;;5106927;28;20226;-88
2020/12/05 09:02:20;;;;;;;4.70;3.10;;;2.80;99.90;;;;;;5105904;28;20269;-88
2020/12/05 09:04:51;;;;;;;3.47;2.57;;;2.80;99.90;;;;;;5107018;28;20541;-88
2020/12/05 09:07:27;;;;;;;4.67;2.97;;;2.70;99.90;;;;;;5106470;28;20232;-88
2020/12/05 09:09:58;;;;;;;4.93;3.20;;;2.70;99.90;;;;;;5105799;28;20203;-86
2020/12/05 09:12:36;;;;;;;3.97;2.90;;;2.70;99.90;;;;;;5105656;28;20252;-87
2020/12/05 09:15:09;;;;;;;4.20;2.90;;;2.70;99.90;;;;;;5107444;28;20286;-88
2020/12/05 09:17:57;;;;;;;4.63;2.90;;;2.60;99.90;;;;;;5108135;28;20199;-87
2020/12/05 09:20:28;;;;;;;5.93;3.20;;;2.60;99.90;;;;;;5108564;28;20230;-88
2020/12/05 09:23:01;;;;;;;4.70;3.17;;;2.50;99.90;;;;;;5107454;28;20554;-88
2020/12/05 09:25:37;;;;;;;4.43;3.30;;;2.50;99.90;;;;;;5109380;28;20201;-87
2020/12/05 09:28:13;;;;;;;5.83;3.43;;;2.50;99.90;;;;;;5107831;28;20194;-88
2020/12/05 09:30:45;;;;;;;4.60;2.97;;;2.40;99.90;;;;;;5110413;28;20203;-88
2020/12/05 09:33:17;;;;;;;6.17;3.10;;;2.40;99.90;;;;;;5108437;28;20253;-88
2020/12/05 09:35:50;;;;;;;5.13;3.00;;;2.40;99.90;;;;;;5109346;28;20396;-88
2020/12/05 09:38:25;;;;;;;4.07;2.97;;;2.40;99.90;;;;;;5096977;28;20269;-89
2020/12/05 09:40:59;;;;;;;5.13;3.47;;;2.30;99.90;;;;;;5108595;28;20306;-88
2020/12/05 09:43:30;;;;;;;5.17;3.83;;;2.30;99.90;;;;;;5108362;28;20205;-88
2020/12/05 09:46:03;;;;;;;13.07;6.90;;;2.30;99.90;;;;;;5106752;28;20229;-88
2020/12/05 09:48:34;;;;;;;5.03;3.30;;;2.30;99.90;;;;;;5107896;28;20209;-88
2020/12/05 09:51:07;;;;;;;4.93;3.63;;;2.40;99.90;;;;;;5108928;28;20206;-88
2020/12/05 09:53:40;;;;;;;3.53;2.67;;;2.40;99.90;;;;;;5108239;28;20704;-86
2020/12/05 09:56:11;;;;;;;5.03;3.43;;;2.40;99.90;;;;;;5110436;28;20756;-87
2020/12/05 09:58:42;;;;;;;4.13;3.20;;;2.40;99.90;;;;;;5111512;28;20302;-88
2020/12/05 10:01:12;;;;;;;5.33;2.53;;;2.40;99.90;;;;;;5121140;28;20194;-89
2020/12/05 10:03:43;;;;;;;4.30;2.73;;;2.40;99.90;;;;;;5118468;28;20305;-87
2020/12/05 10:06:15;;;;;;;14.87;8.13;;;2.30;99.90;;;;;;5110407;28;20206;-87
2020/12/05 10:08:48;;;;;;;14.97;6.97;;;2.40;99.90;;;;;;5110906;28;20203;-88
2020/12/05 10:11:20;;;;;;;7.80;4.47;;;2.40;99.90;;;;;;5109512;28;20334;-87
2020/12/05 10:13:55;;;;;;;7.93;4.53;;;2.30;99.90;;;;;;5106524;28;20622;-88
2020/12/05 10:16:26;;;;;;;3.53;2.70;;;2.40;99.90;;;;;;5108599;28;20201;-88
2020/12/05 10:18:57;;;;;;;4.03;2.30;;;2.30;99.90;;;;;;5109097;28;20237;-89
2020/12/05 10:21:29;;;;;;;4.17;2.37;;;2.30;99.90;;;;;;5108706;28;20239;-88
2020/12/05 10:24:02;;;;;;;5.40;2.40;;;2.40;99.90;;;;;;5110185;28;20315;-88
2020/12/05 10:26:33;;;;;;;5.70;3.63;;;2.40;99.90;;;;;;5109901;28;20218;-88
2020/12/05 10:29:04;;;;;;;12.37;7.03;;;2.30;99.90;;;;;;5109869;28;20214;-89
2020/12/05 10:31:35;;;;;;;13.77;8.50;;;2.40;99.90;;;;;;5109912;28;20254;-88
2020/12/05 10:34:08;;;;;;;12.37;7.03;;;2.40;99.90;;;;;;5108986;28;20384;-88
2020/12/05 10:36:40;;;;;;;10.60;6.23;;;2.40;99.90;;;;;;5109500;28;20221;-89
2020/12/05 10:39:13;;;;;;;12.50;5.97;;;2.40;99.90;;;;;;5105369;28;20234;-89
2020/12/05 10:41:46;;;;;;;7.17;3.97;;;2.40;99.90;;;;;;5106890;28;20225;-88
2020/12/05 10:44:17;;;;;;;6.27;4.37;;;2.30;99.90;;;;;;5107588;28;20287;-89
2020/12/05 10:46:51;;;;;;;7.87;4.07;;;2.40;99.90;;;;;;5108514;28;20198;-87
2020/12/05 10:49:23;;;;;;;5.00;3.37;;;2.40;99.90;;;;;;5108155;28;20206;-88
2020/12/05 10:51:54;;;;;;;6.03;3.70;;;2.50;99.90;;;;;;5106584;28;20270;-88
2020/12/05 10:54:31;;;;;;;10.93;5.23;;;2.40;99.90;;;;;;5108406;28;20226;-88
2020/12/05 10:57:02;;;;;;;8.20;4.57;;;2.50;99.90;;;;;;5108505;28;20206;-88
2020/12/05 10:59:34;;;;;;;5.13;3.40;;;2.50;99.90;;;;;;5107277;28;20239;-88
2020/12/05 11:02:09;;;;;;;8.50;4.40;;;2.50;99.90;;;;;;5105623;28;20200;-87
2020/12/05 11:04:41;;;;;;;11.33;5.67;;;2.50;99.90;;;;;;5108904;28;20270;-90
2020/12/05 11:10:02;;;;;;;11.50;5.93;;;2.50;99.90;;;;;;5111444;28;20205;-87
2020/12/05 11:12:33;;;;;;;12.77;6.37;;;2.60;99.90;;;;;;5110298;28;20206;-89
2020/12/05 11:15:03;;;;;;;16.83;6.63;;;2.60;99.90;;;;;;5112445;28;20221;-88
2020/12/05 11:17:34;;;;;;;9.33;5.87;;;2.70;99.90;;;;;;5112684;28;20244;-89
2020/12/05 11:20:05;;;;;;;7.80;4.70;;;2.70;99.90;;;;;;5111992;28;20223;-88
2020/12/05 11:22:38;;;;;;;8.53;4.53;;;2.70;99.90;;;;;;5110888;28;20212;-87
2020/12/05 11:25:18;;;;;;;11.50;6.73;;;2.70;99.90;;;;;;5092484;28;20222;-88
2020/12/05 11:28:02;;;;;;;11.23;6.43;;;2.70;99.90;;;;;;5096852;28;20228;-88
2020/12/05 11:30:33;;;;;;;6.07;3.47;;;2.80;99.90;;;;;;5110644;28;20651;-87
2020/12/05 11:33:04;;;;;;;4.27;3.23;;;2.90;99.90;;;;;;5111535;28;20275;-88
2020/12/05 11:35:39;;;;;;;6.40;3.40;;;3.00;99.90;;;;;;5112091;28;20210;-89
2020/12/05 11:38:09;;;;;;;4.27;2.83;;;2.90;99.90;;;;;;5100671;28;20256;-88
2020/12/05 11:40:41;;;;;;;5.70;2.70;;;2.90;99.90;;;;;;5111372;28;20230;-90
2020/12/05 11:43:12;;;;;;;3.90;2.80;;;2.90;99.90;;;;;;5113714;28;20257;-88
2020/12/05 11:45:42;;;;;;;4.17;2.70;;;2.90;99.90;;;;;;5112783;28;20206;-88
2020/12/05 11:48:13;;;;;;;6.43;2.47;;;2.80;99.90;;;;;;5112912;28;20254;-86
2020/12/05 11:50:45;;;;;;;4.67;3.00;;;2.80;99.90;;;;;;5111590;28;20271;-88
2020/12/05 11:53:15;;;;;;;5.40;3.30;;;2.70;99.90;;;;;;5111942;28;20221;-87
2020/12/05 11:55:48;;;;;;;4.20;2.73;;;2.70;99.90;;;;;;5112847;28;20218;-87
2020/12/05 11:58:20;;;;;;;4.70;2.77;;;2.60;99.90;;;;;;5111812;28;20202;-88
2020/12/05 12:00:55;;;;;;;6.33;2.90;;;2.60;99.90;;;;;;5111226;28;20294;-88
2020/12/05 12:03:32;;;;;;;6.13;2.93;;;2.60;99.90;;;;;;5111216;28;20213;-87
2020/12/05 12:06:03;;;;;;;4.07;2.70;;;2.60;99.90;;;;;;5111648;28;20213;-89
2020/12/05 12:08:37;;;;;;;4.30;2.80;;;2.60;99.90;;;;;;5111020;28;20221;-88
2020/12/05 12:11:19;;;;;;;5.17;2.63;;;2.60;99.90;;;;;;5112665;28;20202;-87
2020/12/05 12:13:50;;;;;;;3.30;2.50;;;2.60;99.90;;;;;;5111200;28;20210;-88
2020/12/05 12:16:21;;;;;;;3.50;2.20;;;2.70;99.90;;;;;;5110232;28;20217;-88
2020/12/05 12:18:53;;;;;;;3.20;2.30;;;2.70;99.90;;;;;;5110679;28;20209;-86
2020/12/05 12:21:27;;;;;;;4.70;2.23;;;2.80;99.90;;;;;;5110634;28;20205;-87
2020/12/05 12:23:57;;;;;;;3.73;2.20;;;3.00;99.90;;;;;;5111089;28;20217;-88
2020/12/05 12:26:34;;;;;;;7.37;2.40;;;3.10;99.90;;;;;;5111820;28;20199;-87
2020/12/05 12:29:05;;;;;;;3.97;2.20;;;3.20;99.90;;;;;;5091058;28;20207;-87
2020/12/05 12:31:37;;;;;;;4.53;2.30;;;3.30;99.90;;;;;;5090189;28;20211;-88
2020/12/05 12:34:17;;;;;;;4.90;2.63;;;3.40;99.90;;;;;;5100903;28;20234;-87
2020/12/05 12:36:51;;;;;;;4.13;2.27;;;3.50;99.90;;;;;;5108885;28;20194;-88
2020/12/05 12:39:22;;;;;;;5.57;2.37;;;3.60;99.90;;;;;;5109667;28;20226;-88
2020/12/05 12:41:54;;;;;;;4.40;1.90;;;3.70;99.90;;;;;;5109473;28;20282;-88
2020/12/05 12:44:26;;;;;;;4.07;2.27;;;3.70;99.90;;;;;;5108820;28;20221;-87
2020/12/05 12:47:12;;;;;;;3.77;1.80;;;3.80;99.90;;;;;;5111708;28;20230;-87
2020/12/05 12:49:43;;;;;;;3.47;1.83;;;3.80;99.90;;;;;;5111807;28;20202;-88
2020/12/05 12:52:15;;;;;;;3.03;2.27;;;3.80;99.90;;;;;;5110304;28;20217;-87
2020/12/05 12:54:46;;;;;;;3.80;2.37;;;3.80;99.90;;;;;;5112012;28;20236;-88
2020/12/05 12:57:31;;;;;;;4.13;2.30;;;3.80;99.90;;;;;;5115106;28;20222;-87
2020/12/05 13:00:10;;;;;;;3.67;2.03;;;3.80;99.90;;;;;;5109714;28;20222;-88
2020/12/05 13:02:54;;;;;;;4.17;2.50;;;3.80;99.90;;;;;;5107113;28;20297;-88
2020/12/05 13:05:36;;;;;;;5.13;2.80;;;3.70;99.90;;;;;;5108748;28;20213;-87
2020/12/05 13:08:09;;;;;;;3.80;2.20;;;3.70;99.90;;;;;;5111080;28;20198;-88
2020/12/05 13:10:43;;;;;;;3.33;2.03;;;3.60;99.90;;;;;;5107777;28;20194;-89
2020/12/05 13:13:16;;;;;;;3.80;2.40;;;3.60;99.90;;;;;;5111124;28;20207;-88
2020/12/05 13:15:48;;;;;;;4.80;2.33;;;3.50;99.90;;;;;;5111550;28;20203;-86
2020/12/05 13:18:20;;;;;;;3.87;2.13;;;3.50;99.90;;;;;;5111006;28;20214;-87
2020/12/05 13:20:54;;;;;;;4.67;2.10;;;3.50;99.90;;;;;;5111514;28;20242;-87
2020/12/05 13:23:26;;;;;;;4.73;2.23;;;3.50;99.90;;;;;;5112521;28;20298;-89
2020/12/05 13:25:57;;;;;;;4.03;2.77;;;3.40;99.90;;;;;;5111151;28;20631;-88
2020/12/05 13:28:29;;;;;;;6.30;2.67;;;3.40;99.90;;;;;;5110491;28;20203;-88
2020/12/05 13:31:00;;;;;;;5.00;3.10;;;3.40;99.90;;;;;;5111775;28;20226;-87
2020/12/05 13:33:31;;;;;;;5.97;2.80;;;3.40;99.90;;;;;;5110109;28;20203;-86
2020/12/05 13:36:03;;;;;;;4.10;3.37;;;3.40;99.90;;;;;;5104950;28;20223;-88
2020/12/05 13:38:35;;;;;;;4.20;3.27;;;3.50;99.90;;;;;;5090606;28;20207;-88